createdAt,value
2018-05-17T00:00:50.125Z,17.95
2018-05-17T00:03:17.587Z,18.25
2018-05-17T00:05:45.057Z,19.02
2018-05-17T00:08:12.520Z,18.37
2018-05-17T00:10:39.983Z,20.80
2018-05-17T00:13:07.440Z,20.23
2018-05-17T00:15:34.909Z,21.58
2018-05-17T00:18:02.360Z,20.90
2018-05-17T00:20:29.821Z,22.85
2018-05-17T00:22:57.273Z,21.00
2018-05-17T00:25:24.744Z,21.75
2018-05-17T00:27:52.211Z,22.67
2018-05-17T00:30:19.658Z,21.70
2018-05-17T00:32:47.122Z,22.70
2018-05-17T00:35:14.600Z,21.05
2018-05-17T00:37:42.056Z,21.85
2018-05-17T00:40:09.520Z,22.17
2018-05-17T00:42:36.992Z,22.13
2018-05-17T00:45:04.468Z,22.23
2018-05-17T00:47:31.951Z,21.62
2018-05-17T00:49:59.405Z,21.87
2018-05-17T00:52:26.921Z,24.98
2018-05-17T00:54:54.320Z,22.80
2018-05-17T00:57:21.781Z,24.05
2018-05-17T00:59:49.244Z,23.55
2018-05-17T01:02:16.720Z,23.02
2018-05-17T01:04:44.179Z,22.65
2018-05-17T01:07:11.638Z,19.27
2018-05-17T01:09:39.091Z,18.17
2018-05-17T01:12:06.543Z,18.10
2018-05-17T01:14:33.988Z,16.55
2018-05-17T01:17:01.446Z,15.30
2018-05-17T01:19:28.888Z,13.70
2018-05-17T01:21:56.363Z,13.70
2018-05-17T01:24:23.820Z,13.48
2018-05-17T01:26:51.283Z,15.05
2018-05-17T01:29:18.732Z,16.47
2018-05-17T01:31:46.971Z,16.60
2018-05-17T01:34:14.424Z,16.50
2018-05-17T01:36:53.823Z,17.50
2018-05-17T01:39:21.278Z,17.08
2018-05-17T01:41:49.513Z,17.60
2018-05-17T01:44:17.007Z,18.80
2018-05-17T01:46:45.245Z,18.10
2018-05-17T01:49:12.704Z,19.75
2018-05-17T01:51:40.159Z,18.73
2018-05-17T01:54:07.628Z,21.00
2018-05-17T01:56:35.080Z,21.12
2018-05-17T01:59:02.540Z,20.33
2018-05-17T02:01:29.998Z,22.10
2018-05-17T02:03:57.457Z,22.17
2018-05-17T02:06:24.920Z,22.08
2018-05-17T02:08:52.399Z,21.42
2018-05-17T02:11:19.844Z,23.17
2018-05-17T02:13:47.305Z,23.60
2018-05-17T02:16:14.752Z,25.25
2018-05-17T02:18:42.231Z,27.33
2018-05-17T02:21:09.677Z,33.20
2018-05-17T02:23:38.072Z,29.17
2018-05-17T02:26:05.526Z,26.77
2018-05-17T02:28:32.987Z,27.00
2018-05-17T02:31:00.456Z,33.85
2018-05-17T02:33:27.939Z,30.77
2018-05-17T02:35:55.392Z,27.37
2018-05-17T02:38:22.863Z,29.37
2018-05-17T02:40:50.311Z,28.23
2018-05-17T02:43:17.773Z,36.40
2018-05-17T02:45:45.242Z,31.30
2018-05-17T02:48:12.717Z,29.83
2018-05-17T02:50:40.181Z,28.55
2018-05-17T02:53:07.643Z,29.35
2018-05-17T02:55:35.094Z,30.15
2018-05-17T02:58:02.574Z,23.42
2018-05-17T03:00:30.023Z,24.67
2018-05-17T03:02:57.476Z,18.92
2018-05-17T03:05:24.918Z,21.67
2018-05-17T03:07:53.144Z,17.73
2018-05-17T03:10:20.605Z,17.00
2018-05-17T03:12:48.050Z,18.23
2018-05-17T03:15:15.498Z,18.08
2018-05-17T03:17:42.960Z,19.98
2018-05-17T03:20:10.429Z,17.85
2018-05-17T03:22:37.880Z,21.60
2018-05-17T03:25:05.339Z,22.10
2018-05-17T03:27:32.788Z,21.47
2018-05-17T03:30:01.012Z,18.67
2018-05-17T03:32:28.463Z,23.10
2018-05-17T03:34:55.926Z,21.52
2018-05-17T03:37:23.392Z,23.10
2018-05-17T03:39:50.865Z,18.73
2018-05-17T03:42:18.309Z,23.37
2018-05-17T03:44:45.772Z,18.57
2018-05-17T03:47:13.235Z,16.87
2018-05-17T03:49:40.690Z,18.20
2018-05-17T03:52:08.137Z,15.90
2018-05-17T03:54:36.364Z,18.57
2018-05-17T03:57:03.817Z,16.77
2018-05-17T03:59:31.295Z,19.07
2018-05-17T04:02:10.598Z,22.30
2018-05-17T04:04:49.933Z,17.87
2018-05-17T04:07:17.395Z,20.60
2018-05-17T04:09:44.858Z,21.60
2018-05-17T04:12:12.316Z,20.97
2018-05-17T04:14:39.772Z,21.13
2018-05-17T04:17:07.345Z,19.10
2018-05-17T04:19:34.806Z,17.53
2018-05-17T04:22:02.278Z,20.93
2018-05-17T04:24:29.765Z,22.60
2018-05-17T04:26:57.225Z,22.10
2018-05-17T04:29:25.449Z,24.20
2018-05-17T04:31:53.698Z,22.10
2018-05-17T04:34:21.141Z,19.90
2018-05-17T04:36:48.625Z,19.00
2018-05-17T04:39:16.092Z,17.70
2018-05-17T04:41:43.560Z,19.23
2018-05-17T04:44:11.011Z,18.13
2018-05-17T04:46:38.483Z,17.05
2018-05-17T04:49:05.941Z,17.47
2018-05-17T04:51:33.411Z,16.70
2018-05-17T04:54:00.882Z,14.80
2018-05-17T04:56:28.354Z,15.30
2018-05-17T04:58:56.564Z,15.50
2018-05-17T05:01:24.053Z,13.77
2018-05-17T05:03:51.509Z,13.57
2018-05-17T05:06:18.973Z,13.97
2018-05-17T05:08:46.433Z,18.83
2018-05-17T05:11:13.906Z,19.00
2018-05-17T05:13:42.127Z,15.53
2018-05-17T05:16:10.366Z,15.40
2018-05-17T05:18:37.817Z,17.20
2018-05-17T05:21:05.283Z,14.87
2018-05-17T05:23:32.742Z,17.77
2018-05-17T05:26:00.204Z,18.87
2018-05-17T05:28:27.666Z,17.07
2018-05-17T05:30:55.132Z,16.43
2018-05-17T05:33:22.602Z,19.30
2018-05-17T05:35:50.095Z,17.77
2018-05-17T05:38:17.545Z,18.25
2018-05-17T05:40:45.005Z,20.50
2018-05-17T05:43:12.575Z,19.83
2018-05-17T05:45:39.932Z,22.20
2018-05-17T05:48:07.425Z,22.70
2018-05-17T05:50:35.648Z,20.23
2018-05-17T05:53:03.121Z,24.85
2018-05-17T05:55:31.551Z,25.80
2018-05-17T05:57:59.777Z,23.87
2018-05-17T06:00:27.238Z,25.50
2018-05-17T06:02:54.697Z,26.50
2018-05-17T06:05:22.140Z,28.10
2018-05-17T06:07:49.601Z,25.30
2018-05-17T06:10:17.052Z,26.87
2018-05-17T06:12:44.513Z,28.08
2018-05-17T06:15:11.976Z,27.33
2018-05-17T06:17:39.453Z,26.70
2018-05-17T06:20:06.916Z,27.30
2018-05-17T06:22:34.384Z,26.77
2018-05-17T06:25:01.864Z,30.40
2018-05-17T06:27:30.096Z,30.17
2018-05-17T06:29:58.336Z,28.33
2018-05-17T06:32:25.808Z,30.53
2018-05-17T06:34:53.274Z,32.17
2018-05-17T06:37:20.748Z,29.43
2018-05-17T06:39:48.978Z,30.53
2018-05-17T06:42:16.520Z,35.28
2018-05-17T06:44:43.971Z,29.23
2018-05-17T06:47:12.200Z,32.80
2018-05-17T06:49:39.663Z,34.20
2018-05-17T06:52:07.141Z,35.65
2018-05-17T06:54:34.595Z,39.08
2018-05-17T06:57:02.078Z,32.60
2018-05-17T06:59:29.545Z,30.27
2018-05-17T07:01:57.775Z,33.50
2018-05-17T07:04:25.291Z,31.70
2018-05-17T07:06:52.720Z,39.67
2018-05-17T07:09:20.186Z,34.97
2018-05-17T07:11:47.651Z,32.90
2018-05-17T07:14:15.118Z,39.57
2018-05-17T07:16:42.588Z,39.08
2018-05-17T07:19:10.062Z,39.67
2018-05-17T07:21:37.543Z,36.63
2018-05-17T07:24:05.794Z,41.63
2018-05-17T07:26:33.233Z,43.17
2018-05-17T07:29:00.703Z,39.50
2018-05-17T07:31:28.219Z,40.67
2018-05-17T07:33:55.655Z,39.80
2018-05-17T07:36:23.095Z,49.03
2018-05-17T07:38:50.579Z,47.17
2018-05-17T07:41:18.048Z,48.23
2018-05-17T07:43:46.308Z,44.57
2018-05-17T07:46:13.759Z,53.53
2018-05-17T07:48:41.222Z,69.20
2018-05-17T07:51:08.675Z,55.53
2018-05-17T07:53:36.146Z,52.50
2018-05-17T07:56:03.598Z,50.90
2018-05-17T07:58:31.078Z,46.47
2018-05-17T08:00:58.538Z,43.37
2018-05-17T08:03:26.000Z,42.43
2018-05-17T08:05:53.464Z,43.45
2018-05-17T08:08:20.931Z,43.13
2018-05-17T08:10:48.404Z,39.88
2018-05-17T08:13:15.875Z,42.17
2018-05-17T08:15:44.134Z,40.95
2018-05-17T08:18:11.583Z,47.13
2018-05-17T08:20:39.033Z,39.78
2018-05-17T08:23:06.491Z,41.65
2018-05-17T08:25:33.981Z,38.40
2018-05-17T08:28:01.442Z,39.55
2018-05-17T08:30:29.686Z,38.72
2018-05-17T08:32:57.149Z,37.95
2018-05-17T08:35:24.609Z,37.45
2018-05-17T08:37:52.101Z,38.50
2018-05-17T08:40:19.575Z,37.78
2018-05-17T08:42:47.101Z,37.35
2018-05-17T08:45:14.567Z,35.53
2018-05-17T08:47:42.034Z,33.72
2018-05-17T08:50:09.532Z,35.30
2018-05-17T08:52:36.985Z,35.60
2018-05-17T08:55:04.518Z,35.20
2018-05-17T08:57:31.949Z,34.53
2018-05-17T09:00:00.191Z,34.88
2018-05-17T09:02:27.659Z,37.97
2018-05-17T09:04:55.142Z,38.20
2018-05-17T09:07:22.597Z,38.38
2018-05-17T09:09:50.068Z,37.00
2018-05-17T09:12:17.537Z,36.05
2018-05-17T09:14:45.784Z,35.63
2018-05-17T09:17:13.252Z,36.97
2018-05-17T09:19:40.723Z,36.10
2018-05-17T09:22:08.185Z,35.50
2018-05-17T09:24:35.668Z,36.08
2018-05-17T09:27:03.135Z,38.72
2018-05-17T09:29:31.365Z,38.13
2018-05-17T09:31:58.853Z,36.65
2018-05-17T09:34:26.323Z,35.80
2018-05-17T09:36:53.815Z,37.45
2018-05-17T09:39:21.274Z,39.08
2018-05-17T09:41:49.521Z,35.55
2018-05-17T09:44:17.005Z,37.90
2018-05-17T09:46:45.239Z,35.75
2018-05-17T09:49:12.708Z,38.38
2018-05-17T09:51:40.199Z,39.63
2018-05-17T09:54:07.669Z,37.10
2018-05-17T09:56:35.132Z,37.47
2018-05-17T09:59:03.356Z,39.20
2018-05-17T10:01:30.814Z,38.05
2018-05-17T10:03:58.272Z,36.30
2018-05-17T10:06:25.740Z,39.42
2018-05-17T10:08:53.276Z,39.17
2018-05-17T10:11:20.663Z,36.92
2018-05-17T10:13:48.132Z,41.15
2018-05-17T10:16:15.612Z,36.63
2018-05-17T10:18:43.077Z,35.72
2018-05-17T10:21:10.554Z,36.00
2018-05-17T10:23:38.005Z,36.35
2018-05-17T10:26:05.470Z,36.63
2018-05-17T10:28:32.956Z,38.45
2018-05-17T10:31:00.439Z,37.45
2018-05-17T10:33:28.668Z,36.80
2018-05-17T10:35:56.128Z,35.92
2018-05-17T10:38:24.369Z,35.13
2018-05-17T10:40:51.835Z,34.88
2018-05-17T10:43:19.319Z,35.03
2018-05-17T10:45:46.791Z,34.03
2018-05-17T10:48:14.263Z,34.92
2018-05-17T10:50:41.745Z,33.58
2018-05-17T10:53:09.216Z,35.60
2018-05-17T10:55:36.676Z,34.20
2018-05-17T10:58:04.144Z,35.22
2018-05-17T11:00:31.632Z,34.75
2018-05-17T11:02:59.865Z,32.25
2018-05-17T11:05:27.320Z,29.42
2018-05-17T11:07:54.780Z,32.78
2018-05-17T11:10:22.245Z,31.90
2018-05-17T11:12:49.721Z,31.95
2018-05-17T11:15:17.207Z,32.92
2018-05-17T11:17:44.648Z,31.27
2018-05-17T11:20:12.121Z,31.67
2018-05-17T11:22:39.589Z,29.27
2018-05-17T11:25:07.058Z,30.08
2018-05-17T11:27:35.298Z,26.52
2018-05-17T11:30:02.736Z,27.23
2018-05-17T11:32:30.202Z,29.05
2018-05-17T11:34:57.681Z,26.92
2018-05-17T11:37:25.147Z,27.35
2018-05-17T11:39:52.693Z,27.77
2018-05-17T11:42:20.084Z,26.95
2018-05-17T11:44:49.054Z,27.58
2018-05-17T11:47:16.517Z,29.05
2018-05-17T11:49:43.990Z,28.50
2018-05-17T11:52:11.485Z,29.30
2018-05-17T11:54:38.946Z,29.00
2018-05-17T11:57:06.409Z,28.40
2018-05-17T11:59:33.866Z,28.08
2018-05-17T12:02:01.329Z,29.33
2018-05-17T12:04:28.791Z,29.45
2018-05-17T12:06:56.256Z,27.62
2018-05-17T12:09:23.747Z,29.52
2018-05-17T12:11:51.979Z,28.65
2018-05-17T12:14:19.440Z,28.98
2018-05-17T12:16:46.896Z,27.80
2018-05-17T12:19:14.362Z,26.48
2018-05-17T12:21:41.802Z,27.83
2018-05-17T12:24:09.267Z,28.45
2018-05-17T12:26:36.718Z,26.30
2018-05-17T12:29:04.198Z,27.52
2018-05-17T12:31:31.655Z,25.90
2018-05-17T12:33:59.129Z,27.60
2018-05-17T12:36:26.583Z,26.17
2018-05-17T12:38:54.049Z,25.62
2018-05-17T12:41:21.532Z,27.20
2018-05-17T12:43:49.009Z,25.30
2018-05-17T12:46:17.268Z,27.70
2018-05-17T12:48:44.739Z,27.50
2018-05-17T12:51:12.193Z,28.08
2018-05-17T12:53:39.661Z,26.87
2018-05-17T12:56:07.113Z,27.65
2018-05-17T12:58:34.649Z,24.95
2018-05-17T13:01:02.046Z,28.45
2018-05-17T13:03:29.507Z,25.12
2018-05-17T13:05:56.977Z,25.30
2018-05-17T13:08:24.429Z,25.35
2018-05-17T13:10:51.906Z,26.50
2018-05-17T13:13:20.120Z,26.95
2018-05-17T13:15:48.349Z,24.77
2018-05-17T13:18:15.804Z,26.17
2018-05-17T13:20:43.290Z,25.73
2018-05-17T13:23:10.768Z,26.20
2018-05-17T13:25:38.224Z,25.05
2018-05-17T13:28:05.688Z,26.10
2018-05-17T13:30:33.165Z,27.67
2018-05-17T13:33:01.399Z,26.48
2018-05-17T13:35:28.881Z,21.45
2018-05-17T13:37:56.345Z,26.58
2018-05-17T13:40:23.819Z,26.30
2018-05-17T13:42:51.280Z,27.50
2018-05-17T13:45:18.758Z,24.75
2018-05-17T13:47:46.230Z,26.50
2018-05-17T13:50:13.684Z,25.30
2018-05-17T13:52:41.140Z,27.02
2018-05-17T13:55:08.634Z,27.02
2018-05-17T13:57:36.104Z,27.23
2018-05-17T14:00:03.574Z,25.10
2018-05-17T14:02:31.103Z,27.90
2018-05-17T14:04:58.507Z,27.00
2018-05-17T14:07:26.555Z,26.62
2018-05-17T14:09:54.790Z,24.37
2018-05-17T14:12:22.263Z,27.30
2018-05-17T14:14:49.727Z,26.12
2018-05-17T14:17:17.188Z,25.20
2018-05-17T14:19:44.639Z,25.52
2018-05-17T14:22:12.103Z,24.50
2018-05-17T14:24:39.560Z,24.85
2018-05-17T14:27:07.029Z,25.95
2018-05-17T14:29:34.486Z,25.12
2018-05-17T14:32:01.964Z,26.05
2018-05-17T14:34:29.411Z,27.60
2018-05-17T14:36:56.883Z,26.33
2018-05-17T14:39:24.424Z,27.13
2018-05-17T14:41:51.895Z,25.35
2018-05-17T14:44:20.135Z,24.08
2018-05-17T14:46:47.595Z,25.12
2018-05-17T14:49:15.055Z,27.58
2018-05-17T14:51:42.510Z,27.37
2018-05-17T14:54:10.741Z,25.02
2018-05-17T14:56:38.198Z,23.87
2018-05-17T14:59:06.408Z,25.15
2018-05-17T15:01:33.889Z,22.45
2018-05-17T15:04:02.102Z,21.95
2018-05-17T15:06:29.560Z,25.12
2018-05-17T15:08:57.132Z,24.80
2018-05-17T15:11:25.312Z,25.75
2018-05-17T15:13:53.592Z,22.15
2018-05-17T15:16:20.977Z,23.50
2018-05-17T15:18:49.206Z,22.55
2018-05-17T15:21:17.422Z,22.62
2018-05-17T15:23:45.670Z,21.33
2018-05-17T15:26:13.895Z,22.52
2018-05-17T15:28:41.347Z,21.98
2018-05-17T15:31:08.803Z,23.25
2018-05-17T15:33:36.257Z,22.30
2018-05-17T15:36:03.713Z,20.45
2018-05-17T15:38:31.185Z,21.40
2018-05-17T15:40:58.628Z,20.75
2018-05-17T15:43:26.108Z,20.60
2018-05-17T15:45:53.563Z,23.17
2018-05-17T15:48:21.026Z,21.27
2018-05-17T16:08:08.671Z,17.73
2018-05-17T16:10:36.128Z,17.45
2018-05-17T16:13:03.595Z,19.00
2018-05-17T16:15:31.946Z,20.20
2018-05-17T16:18:00.830Z,17.95
2018-05-17T16:20:28.311Z,19.37
2018-05-17T16:22:57.284Z,18.45
2018-05-17T16:25:24.742Z,18.83
2018-05-17T16:27:52.211Z,20.05
2018-05-17T16:30:19.684Z,17.98
2018-05-17T16:32:47.943Z,20.50
2018-05-17T16:35:16.143Z,21.52
2018-05-17T16:37:44.378Z,18.85
2018-05-17T16:40:12.684Z,18.98
2018-05-17T16:42:40.195Z,18.48
2018-05-17T16:45:07.617Z,18.98
2018-05-17T16:47:35.079Z,17.77
2018-05-17T16:50:02.554Z,17.50
2018-05-17T16:52:30.869Z,18.95
2018-05-17T16:54:59.041Z,19.45
2018-05-17T16:57:26.491Z,18.08
2018-05-17T16:59:53.969Z,18.35
2018-05-17T17:02:21.440Z,17.52
2018-05-17T17:04:49.692Z,16.37
2018-05-17T17:07:17.158Z,17.25
2018-05-17T17:09:44.622Z,16.42
2018-05-17T17:12:12.080Z,17.17
2018-05-17T17:14:39.541Z,17.55
2018-05-17T17:17:07.073Z,15.95
2018-05-17T17:19:34.515Z,17.80
2018-05-17T17:22:01.972Z,16.58
2018-05-17T17:24:30.198Z,16.80
2018-05-17T17:26:57.664Z,16.95
2018-05-17T17:29:25.127Z,15.90
2018-05-17T17:31:52.585Z,16.42
2018-05-17T17:34:20.149Z,16.17
2018-05-17T17:36:47.532Z,16.37
2018-05-17T17:39:14.993Z,16.95
2018-05-17T17:41:42.449Z,16.70
2018-05-17T17:44:09.898Z,15.75
2018-05-17T17:46:37.392Z,17.23
2018-05-17T17:49:04.854Z,17.05
2018-05-17T17:51:32.363Z,16.30
2018-05-17T17:53:59.827Z,16.98
2018-05-17T17:56:27.306Z,17.55
2018-05-17T17:58:54.758Z,17.02
2018-05-17T18:01:22.214Z,16.00
2018-05-17T18:03:49.677Z,16.40
2018-05-17T18:06:17.139Z,16.50
2018-05-17T18:08:44.632Z,17.80
2018-05-17T18:11:12.096Z,17.35
2018-05-17T18:13:40.340Z,17.75
2018-05-17T18:18:58.798Z,16.75
2018-05-17T18:21:26.264Z,17.62
2018-05-17T18:23:53.712Z,16.60
2018-05-17T18:26:21.945Z,17.95
2018-05-17T18:28:49.404Z,17.35
2018-05-17T18:31:16.862Z,16.50
2018-05-17T18:33:44.330Z,17.15
2018-05-17T18:36:11.797Z,16.15
2018-05-17T18:38:39.264Z,16.95
2018-05-17T18:41:06.744Z,17.45
2018-05-17T18:43:34.207Z,17.60
2018-05-17T18:46:01.673Z,18.10
2018-05-17T18:48:29.128Z,17.52
2018-05-17T18:50:56.609Z,17.70
2018-05-17T18:53:24.850Z,17.73
2018-05-17T18:55:52.395Z,17.30
2018-05-17T18:58:19.826Z,16.58
2018-05-17T19:00:47.288Z,17.50
2018-05-17T19:03:14.780Z,19.15
2018-05-17T19:05:42.287Z,17.85
2018-05-17T19:08:09.776Z,17.50
2018-05-17T19:10:38.025Z,17.98
2018-05-17T19:13:05.524Z,16.83
2018-05-17T19:15:32.976Z,18.62
2018-05-17T19:18:01.216Z,17.73
2018-05-17T19:20:28.716Z,17.48
2018-05-17T19:22:56.156Z,17.20
2018-05-17T19:25:23.629Z,17.80
2018-05-17T19:27:51.884Z,17.92
2018-05-17T19:30:19.346Z,16.60
2018-05-17T19:32:46.839Z,17.62
2018-05-17T19:35:15.080Z,16.95
2018-05-17T19:37:42.558Z,17.80
2018-05-17T19:40:10.052Z,18.27
2018-05-17T19:42:38.307Z,18.85
2018-05-17T19:45:05.773Z,17.87
2018-05-17T19:47:33.250Z,18.15
2018-05-17T19:50:01.471Z,18.37
2018-05-17T19:52:28.954Z,17.95
2018-05-17T19:54:56.408Z,19.05
2018-05-17T19:57:23.904Z,18.75
2018-05-17T19:59:51.386Z,18.25
2018-05-17T20:02:19.654Z,18.05
2018-05-17T20:04:47.161Z,17.80
2018-05-17T20:07:14.640Z,19.02
2018-05-17T20:09:42.120Z,20.27
2018-05-17T20:12:09.652Z,19.15
2018-05-17T20:14:37.107Z,19.17
2018-05-17T20:17:04.548Z,19.80
2018-05-17T20:19:32.787Z,19.50
2018-05-17T20:22:00.248Z,18.95
2018-05-17T20:24:27.712Z,19.98
2018-05-17T20:26:55.163Z,20.50
2018-05-17T20:29:22.681Z,19.67
2018-05-17T20:31:50.093Z,18.92
2018-05-17T20:34:17.553Z,19.75
2018-05-17T20:36:45.067Z,20.73
2018-05-17T20:39:12.485Z,19.90
2018-05-17T20:41:39.926Z,21.45
2018-05-17T20:44:07.384Z,22.08
2018-05-17T20:46:34.860Z,23.02
2018-05-17T20:49:03.146Z,21.85
2018-05-17T20:51:30.612Z,21.50
2018-05-17T20:53:58.072Z,21.55
2018-05-17T20:56:25.533Z,22.65
2018-05-17T20:58:52.997Z,21.42
2018-05-17T21:01:20.460Z,23.02
2018-05-17T21:03:48.921Z,22.60
2018-05-17T21:06:16.406Z,22.10
2018-05-17T21:08:43.882Z,21.50
2018-05-17T21:11:11.362Z,22.98
2018-05-17T21:13:38.828Z,20.80
2018-05-17T21:16:06.294Z,23.35
2018-05-17T21:18:33.749Z,21.50
2018-05-17T21:21:01.270Z,21.92
2018-05-17T21:23:29.465Z,22.20
2018-05-17T21:25:57.695Z,21.85
2018-05-17T21:28:25.926Z,22.45
2018-05-17T21:30:53.376Z,21.95
2018-05-17T21:33:20.828Z,20.95
2018-05-17T21:35:48.293Z,22.48
2018-05-17T21:38:15.751Z,23.10
2018-05-17T21:40:43.209Z,21.05
2018-05-17T21:43:10.675Z,23.05
2018-05-17T21:45:38.137Z,23.23
2018-05-17T21:48:05.575Z,23.17
2018-05-17T21:50:33.803Z,23.58
2018-05-17T21:53:01.254Z,22.08
2018-05-17T21:55:28.786Z,23.38
2018-05-17T21:57:56.168Z,23.95
2018-05-17T22:00:23.628Z,23.75
2018-05-17T22:02:51.074Z,24.05
2018-05-17T22:05:18.557Z,22.83
2018-05-17T22:07:46.010Z,23.62
2018-05-17T22:10:13.471Z,24.08
2018-05-17T22:12:40.900Z,23.83
2018-05-17T22:15:09.118Z,22.95
2018-05-17T22:17:36.583Z,24.10
2018-05-17T22:20:04.042Z,25.60
2018-05-17T22:22:31.484Z,25.08
2018-05-17T22:24:59.696Z,23.77
2018-05-17T22:27:27.152Z,23.33
2018-05-17T22:29:54.612Z,24.55
2018-05-17T22:32:22.077Z,23.60
2018-05-17T22:34:49.534Z,25.48
2018-05-17T22:37:17.005Z,29.00
2018-05-17T22:39:44.463Z,29.10
2018-05-17T22:42:11.928Z,28.12
2018-05-17T22:44:39.381Z,27.80
2018-05-17T22:47:07.662Z,28.77
2018-05-17T22:49:35.128Z,28.57
2018-05-17T22:52:02.580Z,30.33
2018-05-17T22:54:30.032Z,30.27
2018-05-17T22:57:10.080Z,27.13
2018-05-17T22:59:38.291Z,26.20
2018-05-17T23:02:05.760Z,26.03
2018-05-17T23:04:33.204Z,25.73
2018-05-17T23:07:00.666Z,27.77
2018-05-17T23:09:28.144Z,26.40
2018-05-17T23:11:55.604Z,25.00
2018-05-17T23:14:23.057Z,24.77
2018-05-17T23:16:50.523Z,23.00
2018-05-17T23:19:17.968Z,25.40
2018-05-17T23:21:45.440Z,22.13
2018-05-17T23:24:12.889Z,23.90
2018-05-17T23:26:40.348Z,22.80
2018-05-17T23:29:08.573Z,20.53
2018-05-17T23:31:36.008Z,22.87
2018-05-17T23:34:03.473Z,22.40
2018-05-17T23:36:30.933Z,22.43
2018-05-17T23:38:58.401Z,23.07
2018-05-17T23:41:34.644Z,23.83
2018-05-17T23:44:02.096Z,24.77
2018-05-17T23:46:30.308Z,23.90
2018-05-17T23:48:57.761Z,22.83
2018-05-17T23:51:25.268Z,23.67
2018-05-17T23:53:52.664Z,25.67
2018-05-17T23:56:20.117Z,26.47
2018-05-17T23:58:47.575Z,25.33
